Pacific Hope — 3FLH6 — position and weather

sailwx.info

Track history (hours):
 
Tides and Currents Weather Stations Pressure Air Temp Water Temp Dewpoint Dewpoint Depression Visibility Wind Speed Wind Dir Waves Ship Positions

Pacific Hope

Last reported at 2017-Apr-11 17:31 UTC. Time now 2017-Apr-24 15:19 UTC.
Position N 30°54' E 123°05'.
Warning: this ship's position is 12 days out of date.

Length 169 m; draft 5.5 m.

Type: Cargo ship. MMSI: 351849000.

Date/timePositionNaut miles runAvg speedWind from/ knotsBaromVisibWave heightAir tempDewpointWater temp
2017-Apr-11 17:31N 30°54' E 123°05'013.8
2017-Apr-11 17:30N 30°54' E 123°05'713.6
2017-Apr-11 17:00N 30°54' E 122°57'713.7
2017-Apr-11 16:30N 30°56' E 122°49'713.5
2017-Apr-11 16:00N 30°58' E 122°41'1012.9
2017-Apr-11 15:16N 30°59' E 122°30'411.3
2017-Apr-11 14:53N 31°01' E 122°26'410.4
2017-Apr-11 14:30N 31°02' E 122°21'9 8.7
2017-Apr-11 13:30N 31°03' E 122°11'5 9.6
2017-Apr-11 13:00N 31°04' E 122°06'510.2
2017-Apr-11 12:30N 31°05' E 121°60'3 6.1
2017-Apr-11 12:00N 31°07' E 121°57'612.2
2017-Apr-11 11:30N 31°10' E 121°51'815.2
2017-Apr-11 11:00N 31°16' E 121°45'611.3
2017-Apr-11 10:30N 31°20' E 121°41'510.8
2017-Apr-11 10:01N 31°23' E 121°35'5 9.4
2017-Apr-11 09:31N 31°25' E 121°30'5 9.1
2017-Apr-11 09:01N 31°29' E 121°27'611.1
2017-Apr-11 08:31N 31°32' E 121°21'612.5
2017-Apr-11 08:00N 31°36' E 121°17'812.6
2017-Apr-11 07:24N 31°41' E 121°10'512.2
2017-Apr-11 06:59N 31°45' E 121°05'510.9
2017-Apr-11 06:30N 31°47' E 120°59'3 6.5
2017-Apr-11 06:01N 31°47' E 120°56'21 9.4
2017-Apr-11 03:47N 32°00' E 120°36'513.4
2017-Apr-11 03:24N 32°04' E 120°32'511.9
2017-Apr-11 03:00N 32°03' E 120°26'5 5.4
2017-Apr-11 02:07N 32°01' E 120°22'0 0.0
2017-Apr-11 01:49N 32°01' E 120°22'0 0.0
2017-Apr-11 01:29N 32°01' E 120°22'0 0.0
2017-Apr-11 00:55N 32°01' E 120°22'0 0.0
2017-Apr-11 00:28N 32°01' E 120°22'0 0.0
2017-Apr-10 23:58N 32°01' E 120°22'0 0.0
2017-Apr-10 23:28N 32°01' E 120°22'0 0.0
2017-Apr-10 22:58N 32°01' E 120°22'0 0.0
2017-Apr-10 22:26N 32°01' E 120°22'0 0.0
2017-Apr-10 21:59N 32°01' E 120°22'0 0.0
2017-Apr-10 21:26N 32°01' E 120°22'0 0.0
2017-Apr-10 20:59N 32°01' E 120°22'0 0.0
2017-Apr-10 20:28N 32°01' E 120°22'0 0.0
2017-Apr-10 19:59N 32°01' E 120°22'0 0.0
2017-Apr-10 19:29N 32°01' E 120°22'0 0.0
2017-Apr-10 18:59N 32°01' E 120°22'0 0.0
2017-Apr-10 18:29N 32°01' E 120°22'0 0.0
2017-Apr-10 17:55N 32°01' E 120°22'0 0.0
2017-Apr-10 17:26N 32°01' E 120°22'0 0.0
2017-Apr-10 16:55N 32°01' E 120°22'0 0.0
2017-Apr-10 16:25N 32°01' E 120°22'0 0.0
2017-Apr-10 15:58N 32°01' E 120°22'0 0.0
2017-Apr-10 15:25N 32°01' E 120°22'0 0.0
2017-Apr-10 14:58N 32°01' E 120°22'0 0.0
2017-Apr-10 14:29N 32°01' E 120°22'0 0.0
2017-Apr-10 13:29N 32°01' E 120°22'0 0.0
2017-Apr-10 12:47N 32°01' E 120°22'0 0.0
2017-Apr-10 12:20N 32°01' E 120°22'0 0.0
2017-Apr-10 11:56N 32°01' E 120°22'0 0.0
2017-Apr-10 11:29N 32°01' E 120°22'0 0.0
2017-Apr-10 10:59N 32°01' E 120°22'0 0.0
2017-Apr-10 10:29N 32°01' E 120°22'0 0.0
2017-Apr-10 09:58N 32°01' E 120°22'0 0.0
2017-Apr-10 09:29N 32°01' E 120°22'0 0.0
2017-Apr-10 08:56N 32°01' E 120°22'0 0.0
2017-Apr-10 08:29N 32°01' E 120°22'0 0.0
2017-Apr-10 07:59N 32°01' E 120°22'0 0.0
2017-Apr-10 07:28N 32°01' E 120°22'0 0.0
2017-Apr-10 06:56N 32°01' E 120°22'0 0.0
2017-Apr-10 06:28N 32°01' E 120°22'0 0.0
2017-Apr-10 05:58N 32°01' E 120°22'0 0.0
2017-Apr-10 05:26N 32°01' E 120°22'0 0.0
2017-Apr-10 04:59N 32°01' E 120°22'0 0.0
2017-Apr-10 04:17N 32°01' E 120°22'0 0.0
2017-Apr-10 03:59N 32°01' E 120°22'0 0.0
2017-Apr-10 03:25N 32°01' E 120°22'0 0.0
2017-Apr-10 02:59N 32°01' E 120°22'0 0.0
2017-Apr-10 02:26N 32°01' E 120°22'0 0.0
2017-Apr-10 01:59N 32°01' E 120°22'0 0.0
2017-Apr-10 01:29N 32°01' E 120°22'0 0.0
2017-Apr-10 00:49N 32°01' E 120°22'0 0.0
2017-Apr-10 00:20N 32°01' E 120°22'0 0.0
2017-Apr-09 23:47N 32°01' E 120°22'0 0.0
2017-Apr-09 23:25N 32°01' E 120°22'0 0.0
2017-Apr-09 22:53N 32°01' E 120°22'0 0.0
2017-Apr-09 22:23N 32°01' E 120°22'0 0.0
2017-Apr-09 21:55N 32°01' E 120°22'0 0.0
2017-Apr-09 21:26N 32°01' E 120°22'0 0.0
2017-Apr-09 20:56N 32°01' E 120°22'0 0.0
2017-Apr-09 20:23N 32°01' E 120°22'0 0.0
2017-Apr-09 19:53N 32°01' E 120°22'0 0.0
2017-Apr-09 19:29N 32°01' E 120°22'0 0.0
2017-Apr-09 18:59N 32°01' E 120°22'0 0.0
2017-Apr-09 18:29N 32°01' E 120°22'0 0.0
2017-Apr-09 17:58N 32°01' E 120°22'0 0.0
2017-Apr-09 17:28N 32°01' E 120°22'0 0.0
2017-Apr-09 16:59N 32°01' E 120°22'0 0.0
2017-Apr-09 16:28N 32°01' E 120°22'0 0.0
2017-Apr-09 15:56N 32°01' E 120°22'0 0.0
2017-Apr-09 15:26N 32°01' E 120°22'0 0.0
2017-Apr-09 14:55N 32°01' E 120°22'0 0.0
2017-Apr-09 14:28N 32°01' E 120°22'0 0.0
2017-Apr-09 13:29N 32°01' E 120°22'0 0.0
2017-Apr-09 12:58N 32°01' E 120°22'0 0.0
2017-Apr-09 12:29N 32°01' E 120°22'0 0.0
2017-Apr-09 11:55N 32°01' E 120°22'0 0.0
2017-Apr-09 11:28N 32°01' E 120°22'0 0.0
2017-Apr-09 10:59N 32°01' E 120°22'0 0.0
2017-Apr-09 10:26N 32°01' E 120°22'0 0.0
2017-Apr-09 09:58N 32°01' E 120°22'0 0.0
2017-Apr-09 09:26N 32°01' E 120°22'0 0.0
2017-Apr-09 08:56N 32°01' E 120°22'0 0.0
2017-Apr-09 08:28N 32°01' E 120°22'0 0.0
2017-Apr-09 07:55N 32°01' E 120°22'0 0.0
2017-Apr-09 07:26N 32°01' E 120°22'0 0.0
2017-Apr-09 06:58N 32°01' E 120°22'0 0.0
2017-Apr-09 06:29N 32°01' E 120°22'0 0.0
2017-Apr-09 05:46N 32°01' E 120°22'0 0.0
2017-Apr-09 05:29N 32°01' E 120°22'0 0.0
2017-Apr-09 04:58N 32°01' E 120°22'0 0.0
2017-Apr-09 04:29N 32°01' E 120°22'0 0.0
2017-Apr-09 03:59N 32°01' E 120°22'0 0.0
2017-Apr-09 03:28N 32°01' E 120°22'0 0.0
2017-Apr-09 02:56N 32°01' E 120°22'0 0.0
2017-Apr-09 02:29N 32°01' E 120°22'0 0.0
2017-Apr-09 01:46N 32°01' E 120°22'0 0.0
2017-Apr-09 01:28N 32°01' E 120°22'0 0.0
2017-Apr-09 00:52N 32°01' E 120°22'0 0.0
2017-Apr-09 00:29N 32°01' E 120°22'0 0.0
2017-Apr-08 23:59N 32°01' E 120°22'0 0.0
2017-Apr-08 23:28N 32°01' E 120°22'0 0.0
2017-Apr-08 22:59N 32°01' E 120°22'0 0.0
2017-Apr-08 22:23N 32°01' E 120°22'0 0.0
2017-Apr-08 21:58N 32°01' E 120°22'0 0.0
2017-Apr-08 21:28N 32°01' E 120°22'0 0.0
2017-Apr-08 20:56N 32°01' E 120°22'0 0.0
2017-Apr-08 20:29N 32°01' E 120°22'0 0.0
2017-Apr-08 19:59N 32°01' E 120°22'0 0.0
2017-Apr-08 19:28N 32°01' E 120°22'0 0.0
2017-Apr-08 18:59N 32°01' E 120°22'0 0.0
2017-Apr-08 18:22N 32°01' E 120°22'0 0.0
2017-Apr-08 17:59N 32°01' E 120°22'0 0.0
2017-Apr-08 17:23N 32°01' E 120°22'0 0.0
2017-Apr-08 16:58N 32°01' E 120°22'0 0.0
2017-Apr-08 16:29N 32°01' E 120°22'0 0.0
2017-Apr-08 15:59N 32°01' E 120°22'0 0.0
2017-Apr-08 15:29N 32°01' E 120°22'0 0.0
2017-Apr-08 14:56N 32°01' E 120°22'0 0.0
2017-Apr-08 13:58N 32°01' E 120°22'0 0.0
2017-Apr-08 13:28N 32°01' E 120°22'0 0.0
2017-Apr-08 12:59N 32°01' E 120°22'0 0.0
2017-Apr-08 12:28N 32°01' E 120°22'0 0.0
2017-Apr-08 11:58N 32°01' E 120°22'0 0.0
2017-Apr-08 11:28N 32°01' E 120°22'0 0.0
2017-Apr-08 10:59N 32°01' E 120°22'0 0.0
2017-Apr-08 10:28N 32°01' E 120°22'0 0.0
2017-Apr-08 09:59N 32°01' E 120°22'0 0.0
2017-Apr-08 09:29N 32°01' E 120°22'0 0.0
2017-Apr-08 08:56N 32°01' E 120°22'0 0.0
2017-Apr-08 08:29N 32°01' E 120°22'0 0.0
2017-Apr-08 07:59N 32°01' E 120°22'0 0.0
2017-Apr-08 07:28N 32°01' E 120°22'0 0.0
2017-Apr-08 06:59N 32°01' E 120°22'0 0.0
2017-Apr-08 06:28N 32°01' E 120°22'0 0.0
2017-Apr-08 05:59N 32°01' E 120°22'0 0.0
2017-Apr-08 05:29N 32°01' E 120°22'0 0.0
2017-Apr-08 04:50N 32°01' E 120°22'0 0.0
2017-Apr-08 04:29N 32°01' E 120°22'0 0.0
2017-Apr-08 03:59N 32°01' E 120°22'0 0.0
2017-Apr-08 03:28N 32°01' E 120°22'0 0.0
2017-Apr-08 02:59N 32°01' E 120°22'0 0.0
2017-Apr-08 02:29N 32°01' E 120°22'0 0.0
2017-Apr-08 01:58N 32°01' E 120°22'0 0.0
2017-Apr-08 01:28N 32°01' E 120°22'0 0.0
2017-Apr-08 00:58N 32°01' E 120°22'0 0.0
2017-Apr-08 00:29N 32°01' E 120°22'0 0.0
2017-Apr-07 23:59N 32°01' E 120°22'0 0.0
2017-Apr-07 23:29N 32°01' E 120°22'0 0.0
2017-Apr-07 22:59N 32°01' E 120°22'0 0.0
2017-Apr-07 22:29N 32°01' E 120°22'0 0.0
2017-Apr-07 21:58N 32°01' E 120°22'0 0.0
2017-Apr-07 21:28N 32°01' E 120°22'0 0.0
2017-Apr-07 20:58N 32°01' E 120°22'0 0.0
2017-Apr-07 20:28N 32°01' E 120°22'0 0.0
2017-Apr-07 19:59N 32°01' E 120°22'0 0.0
2017-Apr-07 19:28N 32°01' E 120°22'0 0.0
2017-Apr-07 18:58N 32°01' E 120°22'0 0.0
2017-Apr-07 18:26N 32°01' E 120°22'0 0.0
2017-Apr-07 17:59N 32°01' E 120°22'0 0.0
2017-Apr-07 17:28N 32°01' E 120°22'0 0.0
2017-Apr-07 16:58N 32°01' E 120°22'0 0.0
2017-Apr-07 16:26N 32°01' E 120°22'0 0.0
2017-Apr-07 15:58N 32°01' E 120°22'0 0.0
2017-Apr-07 15:28N 32°01' E 120°22'0 0.0
2017-Apr-07 14:58N 32°01' E 120°22'0 0.0
2017-Apr-07 13:58N 32°01' E 120°22'0 0.0
2017-Apr-07 13:29N 32°01' E 120°22'0 0.0
2017-Apr-07 12:59N 32°01' E 120°22'0 0.0
2017-Apr-07 12:28N 32°01' E 120°22'0 0.0
2017-Apr-07 11:58N 32°01' E 120°22'0 0.0
2017-Apr-07 11:29N 32°01' E 120°22'0 0.0
2017-Apr-07 10:58N 32°01' E 120°22'0 0.0
2017-Apr-07 10:29N 32°01' E 120°22'0 0.0
2017-Apr-07 09:56N 32°01' E 120°22'0 0.0
2017-Apr-07 09:22N 32°01' E 120°22'0 0.0
2017-Apr-07 08:59N 32°01' E 120°22'0 0.0
2017-Apr-07 08:29N 32°01' E 120°22'0 0.0
2017-Apr-07 07:59N 32°01' E 120°22'0 0.0
2017-Apr-07 05:37N 32°01' E 120°22'0 0.0
2017-Apr-07 05:29N 32°01' E 120°22'0 0.0
2017-Apr-07 04:58N 32°01' E 120°22'0 0.0
2017-Apr-07 04:28N 32°01' E 120°22'0 0.0
2017-Apr-07 03:58N 32°01' E 120°22'0 0.0
2017-Apr-07 03:29N 32°01' E 120°22'0 0.0
2017-Apr-07 02:59N 32°01' E 120°22'0 0.0
2017-Apr-07 02:29N 32°01' E 120°22'0 0.0
2017-Apr-07 01:59N 32°01' E 120°22'0 0.0
2017-Apr-07 01:23N 32°01' E 120°22'0 0.0
2017-Apr-07 00:59N 32°01' E 120°22'0 0.0
2017-Apr-07 00:28N 32°01' E 120°22'0 0.0
2017-Apr-06 23:58N 32°01' E 120°22'0 0.0
2017-Apr-06 23:29N 32°01' E 120°22'0 0.0
2017-Apr-06 22:59N 32°01' E 120°22'0 0.0
2017-Apr-06 22:29N 32°01' E 120°22'0 0.0
2017-Apr-06 21:58N 32°01' E 120°22'0 0.0
2017-Apr-06 21:29N 32°01' E 120°22'0 0.0
2017-Apr-06 20:59N 32°01' E 120°22'0 0.0
2017-Apr-06 20:29N 32°01' E 120°22'0 0.0
2017-Apr-06 19:59N 32°01' E 120°22'0 0.0
2017-Apr-06 19:23N 32°01' E 120°22'0 0.0
2017-Apr-06 18:59N 32°01' E 120°22'0 0.0
2017-Apr-06 18:29N 32°01' E 120°22'0 0.0
2017-Apr-06 17:59N 32°01' E 120°22'0 0.0
2017-Apr-06 17:28N 32°01' E 120°22'0 0.0
2017-Apr-06 16:59N 32°01' E 120°22'0 0.0
2017-Apr-06 16:26N 32°01' E 120°22'0 0.0
2017-Apr-06 16:00N 32°01' E 120°22'0 0.0
2017-Apr-06 15:30N 32°01' E 120°22'0 0.0
2017-Apr-06 15:00N 32°01' E 120°22'4 4.4
2017-Apr-06 14:00N 32°02' E 120°27'5 9.1
2017-Apr-06 13:30N 32°01' E 120°32'27 7.8
2017-Apr-06 10:01N 31°47' E 120°59'1 6.6
2017-Apr-06 09:51N 31°47' E 121°00'3 7.0
2017-Apr-06 09:25N 31°46' E 121°04'4 8.6
2017-Apr-06 09:00N 31°44' E 121°07'3 6.7
2017-Apr-06 08:30N 31°41' E 121°10'4 7.5
2017-Apr-06 08:00N 31°39' E 121°13'4 8.3
2017-Apr-06 07:30N 31°36' E 121°17'5 9.2
2017-Apr-06 07:00N 31°33' E 121°20'4 7.2
2017-Apr-06 06:30N 31°31' E 121°24'0 0.1
2017-Apr-06 06:01N 31°31' E 121°24'0 0.1
2017-Apr-06 05:30N 31°31' E 121°24'0 0.1
2017-Apr-06 04:59N 31°31' E 121°24'0 0.0
2017-Apr-06 04:30N 31°31' E 121°24'0 0.1
2017-Apr-06 04:00N 31°31' E 121°24'0 0.1
2017-Apr-06 03:30N 31°31' E 121°24'0 0.5
2017-Apr-06 03:00N 31°31' E 121°24'3 6.0
2017-Apr-06 02:30N 31°29' E 121°27'4 8.5
2017-Apr-06 02:00N 31°26' E 121°30'4 8.5
2017-Apr-06 01:30N 31°24' E 121°34'510.8
2017-Apr-06 01:00N 31°21' E 121°40'5 9.2
2017-Apr-06 00:30N 31°19' E 121°45'510.4
2017-Apr-06 00:01N 31°17' E 121°50'611.4
2017-Apr-05 23:30N 31°15' E 121°57'510.6
2017-Apr-05 23:00N 31°14' E 122°03'5 9.7
2017-Apr-05 22:30N 31°13' E 122°08'5 9.5
2017-Apr-05 22:01N 31°10' E 122°12'611.0
2017-Apr-05 21:31N 31°07' E 122°18'510.2
2017-Apr-05 21:00N 31°07' E 122°24'4 8.6
2017-Apr-05 20:30N 31°07' E 122°29'3 6.3
2017-Apr-05 19:59N 31°06' E 122°32'10 0.2
2017-Apr-04 01:11N 31°09' E 122°44'0 0.1
2017-Apr-04 00:59N 31°09' E 122°44'0 0.0
2017-Apr-03 23:56N 31°09' E 122°44'0 0.0
2017-Apr-03 23:29N 31°09' E 122°44'0 0.0
2017-Apr-03 22:59N 31°09' E 122°44'0 0.1
2017-Apr-03 22:29N 31°09' E 122°44'0 0.0
2017-Apr-03 21:59N 31°09' E 122°44'0 0.0
2017-Apr-03 21:29N 31°09' E 122°44'0 0.0
2017-Apr-03 20:50N 31°09' E 122°44'0 0.1
2017-Apr-03 20:23N 31°09' E 122°44'0 0.0
2017-Apr-03 19:47N 31°09' E 122°44'0 0.1
2017-Apr-03 19:26N 31°09' E 122°43'0 0.0
2017-Apr-03 18:47N 31°09' E 122°43'0 0.1
2017-Apr-03 17:29N 31°09' E 122°43'0 0.2
2017-Apr-03 16:59N 31°09' E 122°43'0 0.1
2017-Apr-03 16:29N 31°09' E 122°43'0 0.1
2017-Apr-03 15:59N 31°09' E 122°44'0 0.0
2017-Apr-03 15:26N 31°09' E 122°44'0 0.1
2017-Apr-03 14:59N 31°09' E 122°44'0 0.0
2017-Apr-03 13:23N 31°09' E 122°44'0 0.0
2017-Apr-03 12:59N 31°09' E 122°44'0 0.0
2017-Apr-03 12:05N 31°09' E 122°44'0 0.0
2017-Apr-03 11:50N 31°09' E 122°44'0 0.0
2017-Apr-03 11:23N 31°09' E 122°44'0 0.1
2017-Apr-03 10:53N 31°09' E 122°44'0 0.0
2017-Apr-03 10:14N 31°09' E 122°44'0 0.1
2017-Apr-03 09:47N 31°09' E 122°44'0 0.0
2017-Apr-03 09:29N 31°09' E 122°44'0 0.0
2017-Apr-03 08:59N 31°09' E 122°44'0 0.1
2017-Apr-03 07:53N 31°09' E 122°44'0 0.0
2017-Apr-03 07:29N 31°09' E 122°44'0 0.0
2017-Apr-03 06:41N 31°09' E 122°44'0 0.0
2017-Apr-03 06:17N 31°09' E 122°44'0 0.0
2017-Apr-03 05:41N 31°09' E 122°44'0 0.1
2017-Apr-03 05:26N 31°09' E 122°44'0 0.0
2017-Apr-03 04:47N 31°09' E 122°44'0 0.2
2017-Apr-03 04:29N 31°09' E 122°44'0 0.0
2017-Apr-03 03:56N 31°09' E 122°44'0 0.0
2017-Apr-03 03:26N 31°09' E 122°44'0 0.0
2017-Apr-03 02:56N 31°09' E 122°44'0 0.0
2017-Apr-03 02:29N 31°09' E 122°44'0 0.0
2017-Apr-03 01:02N 31°09' E 122°44'0 0.0
2017-Apr-02 23:56N 31°09' E 122°44'0 0.1
2017-Apr-02 23:29N 31°09' E 122°44'0 0.0
2017-Apr-02 22:59N 31°09' E 122°44'0 0.0
2017-Apr-02 22:20N 31°09' E 122°44'0 0.0
2017-Apr-02 21:56N 31°09' E 122°44'0 0.2
2017-Apr-02 21:29N 31°09' E 122°44'0 0.0
2017-Apr-02 20:50N 31°09' E 122°44'0 0.1
2017-Apr-02 20:14N 31°09' E 122°43'0 0.0
2017-Apr-02 19:53N 31°09' E 122°43'0 0.1
2017-Apr-02 18:20N 31°09' E 122°43'0 0.1
2017-Apr-02 17:26N 31°09' E 122°43'0 0.6
2017-Apr-02 17:00N 31°09' E 122°44'2 3.3
2017-Apr-02 16:30N 31°08' E 122°45'3 6.2
2017-Apr-02 15:59N 31°06' E 122°48'5 7.1
2017-Apr-02 15:19N 31°03' E 122°53'3 9.5
2017-Apr-02 15:00N 31°02' E 122°56'1110.7
2017-Apr-02 13:57N 30°55' E 123°06'  
Track history (hours):
 
Tides and Currents Weather Stations Pressure Air Temp Water Temp Dewpoint Dewpoint Depression Visibility Wind Speed Wind Dir Waves Ship Positions

Pacific Hope

Last reported at 2017-Apr-11 17:31 UTC. Time now 2017-Apr-24 15:19 UTC.
Position N 30°54' E 123°05'.
Warning: this ship's position is 12 days out of date.

Length 169 m; draft 5.5 m.

Type: Cargo ship. MMSI: 351849000.

Date/timePositionNaut miles runAvg speedWind from/ knotsBaromVisibWave heightAir tempDewpointWater temp
2017-Apr-11 17:31N 30°54' E 123°05'013.8
2017-Apr-11 17:30N 30°54' E 123°05'713.6
2017-Apr-11 17:00N 30°54' E 122°57'713.7
2017-Apr-11 16:30N 30°56' E 122°49'713.5
2017-Apr-11 16:00N 30°58' E 122°41'1012.9
2017-Apr-11 15:16N 30°59' E 122°30'411.3
2017-Apr-11 14:53N 31°01' E 122°26'410.4
2017-Apr-11 14:30N 31°02' E 122°21'9 8.7
2017-Apr-11 13:30N 31°03' E 122°11'5 9.6
2017-Apr-11 13:00N 31°04' E 122°06'510.2
2017-Apr-11 12:30N 31°05' E 121°60'3 6.1
2017-Apr-11 12:00N 31°07' E 121°57'612.2
2017-Apr-11 11:30N 31°10' E 121°51'815.2
2017-Apr-11 11:00N 31°16' E 121°45'611.3
2017-Apr-11 10:30N 31°20' E 121°41'510.8
2017-Apr-11 10:01N 31°23' E 121°35'5 9.4
2017-Apr-11 09:31N 31°25' E 121°30'5 9.1
2017-Apr-11 09:01N 31°29' E 121°27'611.1
2017-Apr-11 08:31N 31°32' E 121°21'612.5
2017-Apr-11 08:00N 31°36' E 121°17'812.6
2017-Apr-11 07:24N 31°41' E 121°10'512.2
2017-Apr-11 06:59N 31°45' E 121°05'510.9
2017-Apr-11 06:30N 31°47' E 120°59'3 6.5
2017-Apr-11 06:01N 31°47' E 120°56'21 9.4
2017-Apr-11 03:47N 32°00' E 120°36'513.4
2017-Apr-11 03:24N 32°04' E 120°32'511.9
2017-Apr-11 03:00N 32°03' E 120°26'5 5.4
2017-Apr-11 02:07N 32°01' E 120°22'0 0.0
2017-Apr-11 01:49N 32°01' E 120°22'0 0.0
2017-Apr-11 01:29N 32°01' E 120°22'0 0.0
2017-Apr-11 00:55N 32°01' E 120°22'0 0.0
2017-Apr-11 00:28N 32°01' E 120°22'0 0.0
2017-Apr-10 23:58N 32°01' E 120°22'0 0.0
2017-Apr-10 23:28N 32°01' E 120°22'0 0.0
2017-Apr-10 22:58N 32°01' E 120°22'0 0.0
2017-Apr-10 22:26N 32°01' E 120°22'0 0.0
2017-Apr-10 21:59N 32°01' E 120°22'0 0.0
2017-Apr-10 21:26N 32°01' E 120°22'0 0.0
2017-Apr-10 20:59N 32°01' E 120°22'0 0.0
2017-Apr-10 20:28N 32°01' E 120°22'0 0.0
2017-Apr-10 19:59N 32°01' E 120°22'0 0.0
2017-Apr-10 19:29N 32°01' E 120°22'0 0.0
2017-Apr-10 18:59N 32°01' E 120°22'0 0.0
2017-Apr-10 18:29N 32°01' E 120°22'0 0.0
2017-Apr-10 17:55N 32°01' E 120°22'0 0.0
2017-Apr-10 17:26N 32°01' E 120°22'0 0.0
2017-Apr-10 16:55N 32°01' E 120°22'0 0.0
2017-Apr-10 16:25N 32°01' E 120°22'0 0.0
2017-Apr-10 15:58N 32°01' E 120°22'0 0.0
2017-Apr-10 15:25N 32°01' E 120°22'0 0.0
2017-Apr-10 14:58N 32°01' E 120°22'0 0.0
2017-Apr-10 14:29N 32°01' E 120°22'0 0.0
2017-Apr-10 13:29N 32°01' E 120°22'0 0.0
2017-Apr-10 12:47N 32°01' E 120°22'0 0.0
2017-Apr-10 12:20N 32°01' E 120°22'0 0.0
2017-Apr-10 11:56N 32°01' E 120°22'0 0.0
2017-Apr-10 11:29N 32°01' E 120°22'0 0.0
2017-Apr-10 10:59N 32°01' E 120°22'0 0.0
2017-Apr-10 10:29N 32°01' E 120°22'0 0.0
2017-Apr-10 09:58N 32°01' E 120°22'0 0.0
2017-Apr-10 09:29N 32°01' E 120°22'0 0.0
2017-Apr-10 08:56N 32°01' E 120°22'0 0.0
2017-Apr-10 08:29N 32°01' E 120°22'0 0.0
2017-Apr-10 07:59N 32°01' E 120°22'0 0.0
2017-Apr-10 07:28N 32°01' E 120°22'0 0.0
2017-Apr-10 06:56N 32°01' E 120°22'0 0.0
2017-Apr-10 06:28N 32°01' E 120°22'0 0.0
2017-Apr-10 05:58N 32°01' E 120°22'0 0.0
2017-Apr-10 05:26N 32°01' E 120°22'0 0.0
2017-Apr-10 04:59N 32°01' E 120°22'0 0.0
2017-Apr-10 04:17N 32°01' E 120°22'0 0.0
2017-Apr-10 03:59N 32°01' E 120°22'0 0.0
2017-Apr-10 03:25N 32°01' E 120°22'0 0.0
2017-Apr-10 02:59N 32°01' E 120°22'0 0.0
2017-Apr-10 02:26N 32°01' E 120°22'0 0.0
2017-Apr-10 01:59N 32°01' E 120°22'0 0.0
2017-Apr-10 01:29N 32°01' E 120°22'0 0.0
2017-Apr-10 00:49N 32°01' E 120°22'0 0.0
2017-Apr-10 00:20N 32°01' E 120°22'0 0.0
2017-Apr-09 23:47N 32°01' E 120°22'0 0.0
2017-Apr-09 23:25N 32°01' E 120°22'0 0.0
2017-Apr-09 22:53N 32°01' E 120°22'0 0.0
2017-Apr-09 22:23N 32°01' E 120°22'0 0.0
2017-Apr-09 21:55N 32°01' E 120°22'0 0.0
2017-Apr-09 21:26N 32°01' E 120°22'0 0.0
2017-Apr-09 20:56N 32°01' E 120°22'0 0.0
2017-Apr-09 20:23N 32°01' E 120°22'0 0.0
2017-Apr-09 19:53N 32°01' E 120°22'0 0.0
2017-Apr-09 19:29N 32°01' E 120°22'0 0.0
2017-Apr-09 18:59N 32°01' E 120°22'0 0.0
2017-Apr-09 18:29N 32°01' E 120°22'0 0.0
2017-Apr-09 17:58N 32°01' E 120°22'0 0.0
2017-Apr-09 17:28N 32°01' E 120°22'0 0.0
2017-Apr-09 16:59N 32°01' E 120°22'0 0.0
2017-Apr-09 16:28N 32°01' E 120°22'0 0.0
2017-Apr-09 15:56N 32°01' E 120°22'0 0.0
2017-Apr-09 15:26N 32°01' E 120°22'0 0.0
2017-Apr-09 14:55N 32°01' E 120°22'0 0.0
2017-Apr-09 14:28N 32°01' E 120°22'0 0.0
2017-Apr-09 13:29N 32°01' E 120°22'0 0.0
2017-Apr-09 12:58N 32°01' E 120°22'0 0.0
2017-Apr-09 12:29N 32°01' E 120°22'0 0.0
2017-Apr-09 11:55N 32°01' E 120°22'0 0.0
2017-Apr-09 11:28N 32°01' E 120°22'0 0.0
2017-Apr-09 10:59N 32°01' E 120°22'0 0.0
2017-Apr-09 10:26N 32°01' E 120°22'0 0.0
2017-Apr-09 09:58N 32°01' E 120°22'0 0.0
2017-Apr-09 09:26N 32°01' E 120°22'0 0.0
2017-Apr-09 08:56N 32°01' E 120°22'0 0.0
2017-Apr-09 08:28N 32°01' E 120°22'0 0.0
2017-Apr-09 07:55N 32°01' E 120°22'0 0.0
2017-Apr-09 07:26N 32°01' E 120°22'0 0.0
2017-Apr-09 06:58N 32°01' E 120°22'0 0.0
2017-Apr-09 06:29N 32°01' E 120°22'0 0.0
2017-Apr-09 05:46N 32°01' E 120°22'0 0.0
2017-Apr-09 05:29N 32°01' E 120°22'0 0.0
2017-Apr-09 04:58N 32°01' E 120°22'0 0.0
2017-Apr-09 04:29N 32°01' E 120°22'0 0.0
2017-Apr-09 03:59N 32°01' E 120°22'0 0.0
2017-Apr-09 03:28N 32°01' E 120°22'0 0.0
2017-Apr-09 02:56N 32°01' E 120°22'0 0.0
2017-Apr-09 02:29N 32°01' E 120°22'0 0.0
2017-Apr-09 01:46N 32°01' E 120°22'0 0.0
2017-Apr-09 01:28N 32°01' E 120°22'0 0.0
2017-Apr-09 00:52N 32°01' E 120°22'0 0.0
2017-Apr-09 00:29N 32°01' E 120°22'0 0.0
2017-Apr-08 23:59N 32°01' E 120°22'0 0.0
2017-Apr-08 23:28N 32°01' E 120°22'0 0.0
2017-Apr-08 22:59N 32°01' E 120°22'0 0.0
2017-Apr-08 22:23N 32°01' E 120°22'0 0.0
2017-Apr-08 21:58N 32°01' E 120°22'0 0.0
2017-Apr-08 21:28N 32°01' E 120°22'0 0.0
2017-Apr-08 20:56N 32°01' E 120°22'0 0.0
2017-Apr-08 20:29N 32°01' E 120°22'0 0.0
2017-Apr-08 19:59N 32°01' E 120°22'0 0.0
2017-Apr-08 19:28N 32°01' E 120°22'0 0.0
2017-Apr-08 18:59N 32°01' E 120°22'0 0.0
2017-Apr-08 18:22N 32°01' E 120°22'0 0.0
2017-Apr-08 17:59N 32°01' E 120°22'0 0.0
2017-Apr-08 17:23N 32°01' E 120°22'0 0.0
2017-Apr-08 16:58N 32°01' E 120°22'0 0.0
2017-Apr-08 16:29N 32°01' E 120°22'0 0.0
2017-Apr-08 15:59N 32°01' E 120°22'0 0.0
2017-Apr-08 15:29N 32°01' E 120°22'0 0.0
2017-Apr-08 14:56N 32°01' E 120°22'0 0.0
2017-Apr-08 13:58N 32°01' E 120°22'0 0.0
2017-Apr-08 13:28N 32°01' E 120°22'0 0.0
2017-Apr-08 12:59N 32°01' E 120°22'0 0.0
2017-Apr-08 12:28N 32°01' E 120°22'0 0.0
2017-Apr-08 11:58N 32°01' E 120°22'0 0.0
2017-Apr-08 11:28N 32°01' E 120°22'0 0.0
2017-Apr-08 10:59N 32°01' E 120°22'0 0.0
2017-Apr-08 10:28N 32°01' E 120°22'0 0.0
2017-Apr-08 09:59N 32°01' E 120°22'0 0.0
2017-Apr-08 09:29N 32°01' E 120°22'0 0.0
2017-Apr-08 08:56N 32°01' E 120°22'0 0.0
2017-Apr-08 08:29N 32°01' E 120°22'0 0.0
2017-Apr-08 07:59N 32°01' E 120°22'0 0.0
2017-Apr-08 07:28N 32°01' E 120°22'0 0.0
2017-Apr-08 06:59N 32°01' E 120°22'0 0.0
2017-Apr-08 06:28N 32°01' E 120°22'0 0.0
2017-Apr-08 05:59N 32°01' E 120°22'0 0.0
2017-Apr-08 05:29N 32°01' E 120°22'0 0.0
2017-Apr-08 04:50N 32°01' E 120°22'0 0.0
2017-Apr-08 04:29N 32°01' E 120°22'0 0.0
2017-Apr-08 03:59N 32°01' E 120°22'0 0.0
2017-Apr-08 03:28N 32°01' E 120°22'0 0.0
2017-Apr-08 02:59N 32°01' E 120°22'0 0.0
2017-Apr-08 02:29N 32°01' E 120°22'0 0.0
2017-Apr-08 01:58N 32°01' E 120°22'0 0.0
2017-Apr-08 01:28N 32°01' E 120°22'0 0.0
2017-Apr-08 00:58N 32°01' E 120°22'0 0.0
2017-Apr-08 00:29N 32°01' E 120°22'0 0.0
2017-Apr-07 23:59N 32°01' E 120°22'0 0.0
2017-Apr-07 23:29N 32°01' E 120°22'0 0.0
2017-Apr-07 22:59N 32°01' E 120°22'0 0.0
2017-Apr-07 22:29N 32°01' E 120°22'0 0.0
2017-Apr-07 21:58N 32°01' E 120°22'0 0.0
2017-Apr-07 21:28N 32°01' E 120°22'0 0.0
2017-Apr-07 20:58N 32°01' E 120°22'0 0.0
2017-Apr-07 20:28N 32°01' E 120°22'0 0.0
2017-Apr-07 19:59N 32°01' E 120°22'0 0.0
2017-Apr-07 19:28N 32°01' E 120°22'0 0.0
2017-Apr-07 18:58N 32°01' E 120°22'0 0.0
2017-Apr-07 18:26N 32°01' E 120°22'0 0.0
2017-Apr-07 17:59N 32°01' E 120°22'0 0.0
2017-Apr-07 17:28N 32°01' E 120°22'0 0.0
2017-Apr-07 16:58N 32°01' E 120°22'0 0.0
2017-Apr-07 16:26N 32°01' E 120°22'0 0.0
2017-Apr-07 15:58N 32°01' E 120°22'0 0.0
2017-Apr-07 15:28N 32°01' E 120°22'0 0.0
2017-Apr-07 14:58N 32°01' E 120°22'0 0.0
2017-Apr-07 13:58N 32°01' E 120°22'0 0.0
2017-Apr-07 13:29N 32°01' E 120°22'0 0.0
2017-Apr-07 12:59N 32°01' E 120°22'0 0.0
2017-Apr-07 12:28N 32°01' E 120°22'0 0.0
2017-Apr-07 11:58N 32°01' E 120°22'0 0.0
2017-Apr-07 11:29N 32°01' E 120°22'0 0.0
2017-Apr-07 10:58N 32°01' E 120°22'0 0.0
2017-Apr-07 10:29N 32°01' E 120°22'0 0.0
2017-Apr-07 09:56N 32°01' E 120°22'0 0.0
2017-Apr-07 09:22N 32°01' E 120°22'0 0.0
2017-Apr-07 08:59N 32°01' E 120°22'0 0.0
2017-Apr-07 08:29N 32°01' E 120°22'0 0.0
2017-Apr-07 07:59N 32°01' E 120°22'0 0.0
2017-Apr-07 05:37N 32°01' E 120°22'0 0.0
2017-Apr-07 05:29N 32°01' E 120°22'0 0.0
2017-Apr-07 04:58N 32°01' E 120°22'0 0.0
2017-Apr-07 04:28N 32°01' E 120°22'0 0.0
2017-Apr-07 03:58N 32°01' E 120°22'0 0.0
2017-Apr-07 03:29N 32°01' E 120°22'0 0.0
2017-Apr-07 02:59N 32°01' E 120°22'0 0.0
2017-Apr-07 02:29N 32°01' E 120°22'0 0.0
2017-Apr-07 01:59N 32°01' E 120°22'0 0.0
2017-Apr-07 01:23N 32°01' E 120°22'0 0.0
2017-Apr-07 00:59N 32°01' E 120°22'0 0.0
2017-Apr-07 00:28N 32°01' E 120°22'0 0.0
2017-Apr-06 23:58N 32°01' E 120°22'0 0.0
2017-Apr-06 23:29N 32°01' E 120°22'0 0.0
2017-Apr-06 22:59N 32°01' E 120°22'0 0.0
2017-Apr-06 22:29N 32°01' E 120°22'0 0.0
2017-Apr-06 21:58N 32°01' E 120°22'0 0.0
2017-Apr-06 21:29N 32°01' E 120°22'0 0.0
2017-Apr-06 20:59N 32°01' E 120°22'0 0.0
2017-Apr-06 20:29N 32°01' E 120°22'0 0.0
2017-Apr-06 19:59N 32°01' E 120°22'0 0.0
2017-Apr-06 19:23N 32°01' E 120°22'0 0.0
2017-Apr-06 18:59N 32°01' E 120°22'0 0.0
2017-Apr-06 18:29N 32°01' E 120°22'0 0.0
2017-Apr-06 17:59N 32°01' E 120°22'0 0.0
2017-Apr-06 17:28N 32°01' E 120°22'0 0.0
2017-Apr-06 16:59N 32°01' E 120°22'0 0.0
2017-Apr-06 16:26N 32°01' E 120°22'0 0.0
2017-Apr-06 16:00N 32°01' E 120°22'0 0.0
2017-Apr-06 15:30N 32°01' E 120°22'0 0.0
2017-Apr-06 15:00N 32°01' E 120°22'4 4.4
2017-Apr-06 14:00N 32°02' E 120°27'5 9.1
2017-Apr-06 13:30N 32°01' E 120°32'27 7.8
2017-Apr-06 10:01N 31°47' E 120°59'1 6.6
2017-Apr-06 09:51N 31°47' E 121°00'3 7.0
2017-Apr-06 09:25N 31°46' E 121°04'4 8.6
2017-Apr-06 09:00N 31°44' E 121°07'3 6.7
2017-Apr-06 08:30N 31°41' E 121°10'4 7.5
2017-Apr-06 08:00N 31°39' E 121°13'4 8.3
2017-Apr-06 07:30N 31°36' E 121°17'5 9.2
2017-Apr-06 07:00N 31°33' E 121°20'4 7.2
2017-Apr-06 06:30N 31°31' E 121°24'0 0.1
2017-Apr-06 06:01N 31°31' E 121°24'0 0.1
2017-Apr-06 05:30N 31°31' E 121°24'0 0.1
2017-Apr-06 04:59N 31°31' E 121°24'0 0.0
2017-Apr-06 04:30N 31°31' E 121°24'0 0.1
2017-Apr-06 04:00N 31°31' E 121°24'0 0.1
2017-Apr-06 03:30N 31°31' E 121°24'0 0.5
2017-Apr-06 03:00N 31°31' E 121°24'3 6.0
2017-Apr-06 02:30N 31°29' E 121°27'4 8.5
2017-Apr-06 02:00N 31°26' E 121°30'4 8.5
2017-Apr-06 01:30N 31°24' E 121°34'510.8
2017-Apr-06 01:00N 31°21' E 121°40'5 9.2
2017-Apr-06 00:30N 31°19' E 121°45'510.4
2017-Apr-06 00:01N 31°17' E 121°50'611.4
2017-Apr-05 23:30N 31°15' E 121°57'510.6
2017-Apr-05 23:00N 31°14' E 122°03'5 9.7
2017-Apr-05 22:30N 31°13' E 122°08'5 9.5
2017-Apr-05 22:01N 31°10' E 122°12'611.0
2017-Apr-05 21:31N 31°07' E 122°18'510.2
2017-Apr-05 21:00N 31°07' E 122°24'4 8.6
2017-Apr-05 20:30N 31°07' E 122°29'3 6.3
2017-Apr-05 19:59N 31°06' E 122°32'10 0.2
2017-Apr-04 01:11N 31°09' E 122°44'0 0.1
2017-Apr-04 00:59N 31°09' E 122°44'0 0.0
2017-Apr-03 23:56N 31°09' E 122°44'0 0.0
2017-Apr-03 23:29N 31°09' E 122°44'0 0.0
2017-Apr-03 22:59N 31°09' E 122°44'0 0.1
2017-Apr-03 22:29N 31°09' E 122°44'0 0.0
2017-Apr-03 21:59N 31°09' E 122°44'0 0.0
2017-Apr-03 21:29N 31°09' E 122°44'0 0.0
2017-Apr-03 20:50N 31°09' E 122°44'0 0.1
2017-Apr-03 20:23N 31°09' E 122°44'0 0.0
2017-Apr-03 19:47N 31°09' E 122°44'0 0.1
2017-Apr-03 19:26N 31°09' E 122°43'0 0.0
2017-Apr-03 18:47N 31°09' E 122°43'0 0.1
2017-Apr-03 17:29N 31°09' E 122°43'0 0.2
2017-Apr-03 16:59N 31°09' E 122°43'0 0.1
2017-Apr-03 16:29N 31°09' E 122°43'0 0.1
2017-Apr-03 15:59N 31°09' E 122°44'0 0.0
2017-Apr-03 15:26N 31°09' E 122°44'0 0.1
2017-Apr-03 14:59N 31°09' E 122°44'0 0.0
2017-Apr-03 13:23N 31°09' E 122°44'0 0.0
2017-Apr-03 12:59N 31°09' E 122°44'0 0.0
2017-Apr-03 12:05N 31°09' E 122°44'0 0.0
2017-Apr-03 11:50N 31°09' E 122°44'0 0.0
2017-Apr-03 11:23N 31°09' E 122°44'0 0.1
2017-Apr-03 10:53N 31°09' E 122°44'0 0.0
2017-Apr-03 10:14N 31°09' E 122°44'0 0.1
2017-Apr-03 09:47N 31°09' E 122°44'0 0.0
2017-Apr-03 09:29N 31°09' E 122°44'0 0.0
2017-Apr-03 08:59N 31°09' E 122°44'0 0.1
2017-Apr-03 07:53N 31°09' E 122°44'0 0.0
2017-Apr-03 07:29N 31°09' E 122°44'0 0.0
2017-Apr-03 06:41N 31°09' E 122°44'0 0.0
2017-Apr-03 06:17N 31°09' E 122°44'0 0.0
2017-Apr-03 05:41N 31°09' E 122°44'0 0.1
2017-Apr-03 05:26N 31°09' E 122°44'0 0.0
2017-Apr-03 04:47N 31°09' E 122°44'0 0.2
2017-Apr-03 04:29N 31°09' E 122°44'0 0.0
2017-Apr-03 03:56N 31°09' E 122°44'0 0.0
2017-Apr-03 03:26N 31°09' E 122°44'0 0.0
2017-Apr-03 02:56N 31°09' E 122°44'0 0.0
2017-Apr-03 02:29N 31°09' E 122°44'0 0.0
2017-Apr-03 01:02N 31°09' E 122°44'0 0.0
2017-Apr-02 23:56N 31°09' E 122°44'0 0.1
2017-Apr-02 23:29N 31°09' E 122°44'0 0.0
2017-Apr-02 22:59N 31°09' E 122°44'0 0.0
2017-Apr-02 22:20N 31°09' E 122°44'0 0.0
2017-Apr-02 21:56N 31°09' E 122°44'0 0.2
2017-Apr-02 21:29N 31°09' E 122°44'0 0.0
2017-Apr-02 20:50N 31°09' E 122°44'0 0.1
2017-Apr-02 20:14N 31°09' E 122°43'0 0.0
2017-Apr-02 19:53N 31°09' E 122°43'0 0.1
2017-Apr-02 18:20N 31°09' E 122°43'0 0.1
2017-Apr-02 17:26N 31°09' E 122°43'0 0.6
2017-Apr-02 17:00N 31°09' E 122°44'2 3.3
2017-Apr-02 16:30N 31°08' E 122°45'3 6.2
2017-Apr-02 15:59N 31°06' E 122°48'5 7.1
2017-Apr-02 15:19N 31°03' E 122°53'3 9.5
2017-Apr-02 15:00N 31°02' E 122°56'1110.7
2017-Apr-02 13:57N 30°55' E 123°06'  

Dump ship's entire track history